Terminal Aerodrome Forecast
Issued by NWS Omaha/Valley, NE

Home | Current Version | Previous Version | Text Only | Print | Product List | Glossary Off
Versions: 1 2 3 4 5 6 7 8 9 10 11 12 13 14 15 16 17 18 19 20 21 22 23 24 25 26 27 28 29 30 31 32 33 34 35 36

000
FTUS43 KOAX 201902 AAA
TAFOFK
TAF AMD
KOFK 201902Z 2019/2118 18012G20KT P6SM OVC025
      TEMPO 2019/2021 OVC018
     FM202100 18015G23KT P6SM SCT030
     FM210000 16011KT P6SM SCT040
     FM210900 15006KT 6SM HZ SCT250
      TEMPO 2110/2113 4SM BR SCT007=

USA.gov is the U.S. government's official web portal to all federal, state and local government web resources and services.